METAR AND TAF INFORMATION
METAR FOR HEAX
ADDS - METARS form results

(0734 UTC 16 May 2022)
Data provider http://aviationweather.gov/metar/data/
 
Forecast for: HEAX (ALEXANDRIA/NOUZH, EG)
Text: TAF HEAX 160500Z 1606/1712 32010KT 9999 FEW020
Forecast period: 0600 UTC 16 May 2022 to 1200 UTC 17 May 2022
Forecast type: FROM: standard forecast or significant change
Winds: from the NW (320 degrees) at 12 MPH (10 knots; 5.1 m/s)
Visibility: 6 or more miles (10+ km)
Ceiling: at least 12,000 feet AGL
Clouds: few clouds at 2000 feet AGL
Weather: no significant weather forecast for this period

 AIRPORT MAP

 RUNWAY INFORMATION
Runway 04 Runway length 7221 ft Runway width 148 ft
Runway elevation 0 ft Runway displaced threshold 0 ft Runway heading 45
Runway 22 Runway length 7221 ft Runway width 148 ft
Runway elevation 0 ft Runway displaced threshold 0 ft Runway heading 225
Runway 18 Runway length 5909 ft Runway width 98 ft
Runway elevation 0 ft Runway displaced threshold 0 ft Runway heading 180
Runway 36 Runway length 5909 ft Runway width 98 ft
Runway elevation 0 ft Runway displaced threshold 0 ft Runway heading 360

 AIRPORT FREQUENCIES
Type RDO Name ALX RADIO Frequency 5.79 MHZ
Type TWR Name TWR Frequency 120.3 MHZ

 AIRPORT NEAR NAVIGATION AIDS
Type VOR-DME Name Alexandria Frequency 115900 KHZ
Type NDB Name Alexandria Frequency 403 KHZ





Powered by Virtual Airlines Manager

Maps by Rafael Santos